Etusivu
METAR-TAF:

METAR-TAF

Lentoasemat :

Peachtree City Airport (Falcon Field)

Atlanta, Georgia, Yhdysvallat

Leveyspiiri: 33-21-19N, Pituuspiiri: 084-34-01W, korkeus merenpinnasta: 246 m

Tämänhetkinen sää

Tämä raportti tehtiin 27 minuuttia sitten, kello 13.53 UTC
Tuuli 5 kn eri suunnista
Lämpötila 19°C
Kosteus 83%
Ilmanpaine 1015 hPa
Näkyvyys: 16.1 km
selkeää

METAR: KFFC 251353Z AUTO VRB05KT 10SM CLR 19/16 A2998 RMK AO2 SLP150 T01940161

Aika: 10:20 (14:20 UTC)


TAF: puuttuu

Säähavainnot ja -ennusteet yli 4000 lentoasemalta (METAR- ja TAF-raportit).

Käytössä olevat sääasemat on merkitty karttaan keltaisilla ja punaisilla pisteillä.

Aseta hiiri pisteen päälle nähdäksesi sääaseman nimen.

Klikkaa sitten nähdäksesi säähavainnot ja -ennusteet.

Kartan vaihtaminen: klikkaa mustalla rastilla varustettuja vihreitä pisteitä, niin voit zoomata sisään; viivalla varustettua vihreää pistettä, niin voit zoomata ulos tai vihreitä nuolia, niin pääset viereisille kartoille.


METAR-TAF: